Time;durP1;ratioP1;P1;durP2;ratioP2;P2;SDS_P1;SDS_P2;PMS_P1;PMS_P2;Temp;Humidity;BMP_temperature;BMP_pressure;BME280_temperature;BME280_humidity;BME280_pressure;Samples;Min_cycle;Max_cycle;Signal;HPM_P1;HPM_P2
2023/11/18 00:00:23;;;;;;;5.10;3.60;;;8.20;99.90;;;;;;5040781;28;20718;-72
2023/11/18 00:02:50;;;;;;;4.33;3.80;;;8.20;99.90;;;;;;5032926;28;20428;-72
2023/11/18 00:05:15;;;;;;;4.20;3.90;;;8.20;99.90;;;;;;5013149;28;20505;-72
2023/11/18 00:07:41;;;;;;;4.97;4.57;;;8.00;99.90;;;;;;5014290;28;20541;-72
2023/11/18 00:10:08;;;;;;;4.07;3.77;;;8.00;99.90;;;;;;5014181;28;20179;-72
2023/11/18 00:12:39;;;;;;;5.10;4.37;;;8.00;99.90;;;;;;5018689;28;20220;-72
2023/11/18 00:15:08;;;;;;;4.53;4.20;;;8.10;99.90;;;;;;5034029;28;20481;-72
2023/11/18 00:17:34;;;;;;;6.23;5.63;;;8.20;99.90;;;;;;5029728;28;20407;-72
2023/11/18 00:19:59;;;;;;;5.60;3.77;;;8.20;99.90;;;;;;5013478;28;20923;-73
2023/11/18 00:22:27;;;;;;;3.90;3.50;;;8.00;99.90;;;;;;5016822;28;20824;-71
2023/11/18 00:24:53;;;;;;;5.40;4.40;;;7.90;99.90;;;;;;5034350;28;20268;-72
2023/11/18 00:27:19;;;;;;;3.77;3.47;;;8.10;99.90;;;;;;5030882;28;20445;-72
2023/11/18 00:29:44;;;;;;;4.23;3.83;;;8.30;99.90;;;;;;5033300;28;20165;-71
2023/11/18 00:32:10;;;;;;;5.43;4.67;;;8.30;99.90;;;;;;5032378;28;20253;-73
2023/11/18 00:34:35;;;;;;;5.83;3.63;;;8.40;99.90;;;;;;5014357;28;20250;-72
2023/11/18 00:37:01;;;;;;;4.50;4.10;;;8.40;99.90;;;;;;5013911;28;20172;-72
2023/11/18 00:39:27;;;;;;;4.97;4.47;;;8.50;99.90;;;;;;5014096;28;20253;-72
2023/11/18 00:41:53;;;;;;;3.73;3.40;;;8.60;99.90;;;;;;5013606;28;20362;-71
2023/11/18 00:44:19;;;;;;;4.03;3.70;;;8.60;99.90;;;;;;5032072;28;20168;-72
2023/11/18 00:46:45;;;;;;;3.67;3.37;;;8.60;99.90;;;;;;5033634;28;20930;-72
2023/11/18 00:49:13;;;;;;;3.30;3.00;;;8.60;99.90;;;;;;5033554;28;20482;-72
2023/11/18 00:51:39;;;;;;;3.60;3.20;;;8.60;99.90;;;;;;5033368;28;20671;-72
2023/11/18 00:54:07;;;;;;;4.40;2.70;;;8.60;99.90;;;;;;5017179;28;20408;-72
2023/11/18 00:56:33;;;;;;;3.40;3.10;;;8.60;99.90;;;;;;5014336;28;20169;-72
2023/11/18 00:59:01;;;;;;;3.40;3.10;;;8.60;99.90;;;;;;5013213;28;20836;-72
2023/11/18 01:01:26;;;;;;;3.53;2.90;;;8.70;99.90;;;;;;5013072;28;20470;-71
2023/11/18 01:03:53;;;;;;;4.13;2.80;;;8.70;99.90;;;;;;5027939;28;20726;-71
2023/11/18 01:06:19;;;;;;;2.40;2.20;;;8.60;99.90;;;;;;5032507;28;20433;-72
2023/11/18 01:08:45;;;;;;;3.63;3.30;;;8.60;99.90;;;;;;5032541;28;20400;-72
2023/11/18 01:11:15;;;;;;;2.97;2.73;;;8.70;99.90;;;;;;5032511;28;20276;-72
2023/11/18 01:13:41;;;;;;;3.60;3.40;;;8.70;99.90;;;;;;5025110;28;20400;-70
2023/11/18 01:16:09;;;;;;;3.43;3.13;;;8.60;99.90;;;;;;5024342;28;21018;-71
2023/11/18 01:18:34;;;;;;;5.27;4.17;;;8.50;99.90;;;;;;5015891;28;20897;-71
2023/11/18 01:21:00;;;;;;;3.20;3.00;;;8.60;99.90;;;;;;5015248;28;20585;-71
2023/11/18 01:23:25;;;;;;;3.10;2.90;;;8.60;99.90;;;;;;5027374;28;20202;-72
2023/11/18 01:25:51;;;;;;;3.53;3.23;;;8.70;99.90;;;;;;5036152;28;20172;-71
2023/11/18 01:28:17;;;;;;;3.37;3.07;;;8.70;99.90;;;;;;5036263;28;20169;-72
2023/11/18 01:30:44;;;;;;;4.10;3.70;;;8.80;99.90;;;;;;5035889;28;20187;-72
2023/11/18 01:33:10;;;;;;;3.10;2.80;;;8.80;99.90;;;;;;5026076;28;20476;-71
2023/11/18 01:35:36;;;;;;;3.63;3.33;;;8.60;99.90;;;;;;5016058;28;20404;-71
2023/11/18 01:38:01;;;;;;;3.37;3.07;;;8.50;99.90;;;;;;5014786;28;20617;-71
2023/11/18 01:40:30;;;;;;;2.70;2.50;;;8.40;99.90;;;;;;5015724;28;20705;-73
2023/11/18 01:42:56;;;;;;;3.63;3.30;;;8.40;99.90;;;;;;5022766;28;20159;-72
2023/11/18 01:45:21;;;;;;;3.90;3.50;;;8.50;99.90;;;;;;5036160;28;20415;-72
2023/11/18 01:47:50;;;;;;;3.93;3.63;;;8.60;99.90;;;;;;5035928;28;20171;-73
2023/11/18 01:50:17;;;;;;;4.27;3.50;;;8.60;99.90;;;;;;5035417;28;20258;-72
2023/11/18 01:52:44;;;;;;;4.40;4.10;;;8.50;99.90;;;;;;5030951;28;20401;-72
2023/11/18 01:55:10;;;;;;;4.23;3.87;;;8.60;99.90;;;;;;5015957;28;20404;-72
2023/11/18 01:57:36;;;;;;;3.97;3.57;;;8.70;99.90;;;;;;5015720;28;20400;-71
2023/11/18 02:00:06;;;;;;;3.70;3.07;;;8.70;99.90;;;;;;5015563;28;20399;-72
2023/11/18 02:02:32;;;;;;;3.00;2.70;;;8.70;99.90;;;;;;5018561;28;20531;-72
2023/11/18 02:05:01;;;;;;;2.90;2.70;;;8.70;99.90;;;;;;5035781;28;20491;-72
2023/11/18 02:07:28;;;;;;;3.10;2.87;;;8.30;99.90;;;;;;5035346;28;20476;-72
2023/11/18 02:09:55;;;;;;;3.53;3.23;;;8.30;99.90;;;;;;5035531;28;20544;-72
2023/11/18 02:12:28;;;;;;;2.33;2.17;;;8.40;99.90;;;;;;5034033;28;20481;-73
2023/11/18 02:14:57;;;;;;;3.10;2.50;;;8.50;99.90;;;;;;5015613;28;20391;-72
2023/11/18 02:17:24;;;;;;;3.10;2.80;;;8.50;99.90;;;;;;5015599;28;20853;-72
2023/11/18 02:19:59;;;;;;;3.03;2.77;;;8.50;99.90;;;;;;5014157;28;20418;-73
2023/11/18 02:22:26;;;;;;;2.10;2.00;;;8.60;99.90;;;;;;5016353;28;20484;-72
2023/11/18 02:24:53;;;;;;;2.53;2.30;;;8.60;99.90;;;;;;5026774;28;20422;-73
2023/11/18 02:27:21;;;;;;;2.17;2.00;;;8.60;99.90;;;;;;5028482;28;20435;-73
2023/11/18 02:29:49;;;;;;;2.97;2.67;;;8.60;99.90;;;;;;5033635;28;20416;-72
2023/11/18 02:32:15;;;;;;;1.80;1.70;;;8.70;99.90;;;;;;5033058;28;20436;-73
2023/11/18 02:35:03;;;;;;;3.40;2.40;;;8.70;99.90;;;;;;5015061;28;20474;-72
2023/11/18 02:37:32;;;;;;;3.27;2.30;;;8.70;99.90;;;;;;5015208;28;20157;-72
2023/11/18 02:40:08;;;;;;;4.73;2.13;;;8.70;99.90;;;;;;5015122;28;20447;-72
2023/11/18 02:42:36;;;;;;;2.57;2.13;;;8.60;99.90;;;;;;5017196;28;20430;-72
2023/11/18 02:45:02;;;;;;;2.40;2.20;;;8.50;99.90;;;;;;5034535;28;20911;-73
2023/11/18 02:47:28;;;;;;;3.20;2.90;;;8.70;99.90;;;;;;5034830;28;20495;-71
2023/11/18 02:50:06;;;;;;;3.00;2.80;;;8.70;99.90;;;;;;5034478;28;20447;-72
2023/11/18 02:52:33;;;;;;;3.40;3.00;;;8.70;99.90;;;;;;5032605;28;20887;-73
2023/11/18 02:54:58;;;;;;;3.80;3.47;;;8.70;99.90;;;;;;5014805;28;20414;-72
2023/11/18 02:57:24;;;;;;;3.50;3.20;;;8.70;99.90;;;;;;5014651;28;20494;-71
2023/11/18 02:59:49;;;;;;;3.27;2.67;;;8.70;99.90;;;;;;5014834;28;20257;-71
2023/11/18 03:02:15;;;;;;;3.63;3.03;;;8.70;99.90;;;;;;5014370;28;20209;-71
2023/11/18 03:04:42;;;;;;;2.90;2.70;;;8.60;99.90;;;;;;5034441;28;20583;-73
2023/11/18 03:07:08;;;;;;;3.27;2.90;;;8.50;99.90;;;;;;5034569;28;20171;-72
2023/11/18 03:09:34;;;;;;;2.73;2.50;;;8.40;99.90;;;;;;5034825;28;20421;-71
2023/11/18 03:12:00;;;;;;;3.73;2.60;;;8.20;99.90;;;;;;5034372;28;20195;-71
2023/11/18 03:14:26;;;;;;;2.87;2.60;;;8.10;99.90;;;;;;5016687;28;20418;-71
2023/11/18 03:16:51;;;;;;;2.33;2.13;;;8.00;99.90;;;;;;5014710;28;20168;-71
2023/11/18 03:19:17;;;;;;;2.90;2.20;;;8.00;99.90;;;;;;5014475;28;20164;-71
2023/11/18 03:21:50;;;;;;;2.70;2.50;;;7.90;99.90;;;;;;5013397;28;20204;-71
2023/11/18 03:24:16;;;;;;;2.97;2.40;;;7.90;99.90;;;;;;5030511;28;20478;-71
2023/11/18 03:26:41;;;;;;;2.93;2.40;;;7.70;99.90;;;;;;5034453;28;20409;-71
2023/11/18 03:29:07;;;;;;;2.80;2.47;;;7.70;99.90;;;;;;5033858;28;20461;-71
2023/11/18 03:31:33;;;;;;;3.00;2.80;;;7.60;99.90;;;;;;5032423;28;20190;-70
2023/11/18 03:33:58;;;;;;;3.03;2.60;;;7.50;99.90;;;;;;5020464;28;20189;-72
2023/11/18 03:36:24;;;;;;;2.70;2.50;;;7.40;99.90;;;;;;5013906;28;20415;-72
2023/11/18 03:38:49;;;;;;;2.37;2.17;;;7.50;99.90;;;;;;5013843;28;20179;-72
2023/11/18 03:41:15;;;;;;;2.10;1.90;;;7.60;99.90;;;;;;5036715;23;20595;-73
2023/11/18 03:43:41;;;;;;;2.13;1.93;;;7.50;99.90;;;;;;5024247;28;20217;-73
2023/11/18 03:46:07;;;;;;;2.30;2.10;;;7.60;99.90;;;;;;5033187;28;20712;-73
2023/11/18 03:48:33;;;;;;;2.20;2.10;;;7.60;99.90;;;;;;5033380;28;20163;-74
2023/11/18 03:50:58;;;;;;;2.47;2.10;;;7.60;99.90;;;;;;5031783;28;20431;-74
2023/11/18 03:53:24;;;;;;;2.60;2.40;;;7.60;99.90;;;;;;5024942;28;20171;-75
2023/11/18 03:55:51;;;;;;;2.73;2.53;;;7.50;99.90;;;;;;5013252;28;20187;-74
2023/11/18 03:58:17;;;;;;;3.07;2.50;;;7.50;99.90;;;;;;5013221;28;20606;-74
2023/11/18 04:00:42;;;;;;;1.90;1.80;;;7.60;99.90;;;;;;5011865;28;20439;-74
2023/11/18 04:03:09;;;;;;;2.77;2.47;;;7.70;99.90;;;;;;5017800;28;20166;-75
2023/11/18 04:05:35;;;;;;;3.37;3.07;;;7.70;99.90;;;;;;5031596;28;20615;-74
2023/11/18 04:08:01;;;;;;;2.43;2.23;;;7.70;99.90;;;;;;5033002;28;20402;-74
2023/11/18 04:10:27;;;;;;;3.57;3.23;;;7.70;99.90;;;;;;5032975;28;20183;-75
2023/11/18 04:12:52;;;;;;;3.07;2.77;;;7.70;99.90;;;;;;5029039;28;20417;-74
2023/11/18 04:15:18;;;;;;;4.90;3.77;;;7.70;99.90;;;;;;5013082;28;20172;-74
2023/11/18 04:17:44;;;;;;;2.60;2.40;;;7.70;99.90;;;;;;5013101;28;20182;-74
2023/11/18 04:20:11;;;;;;;2.80;2.60;;;7.70;99.90;;;;;;5011774;28;20173;-74
2023/11/18 04:22:43;;;;;;;3.33;3.03;;;7.70;99.90;;;;;;5012362;28;20449;-75
2023/11/18 04:25:12;;;;;;;3.33;2.53;;;7.70;99.90;;;;;;5019095;28;20413;-74
2023/11/18 04:27:38;;;;;;;5.10;3.70;;;7.70;99.90;;;;;;5032969;28;20904;-74
2023/11/18 04:30:05;;;;;;;2.70;2.50;;;7.70;99.90;;;;;;5032548;28;20398;-74
2023/11/18 04:32:33;;;;;;;2.50;2.30;;;7.60;99.90;;;;;;5032586;28;20511;-75
2023/11/18 04:35:00;;;;;;;2.77;2.57;;;7.60;99.90;;;;;;5013025;28;20905;-74
2023/11/18 04:37:26;;;;;;;2.03;1.87;;;7.50;99.90;;;;;;5015393;28;20418;-73
2023/11/18 04:39:52;;;;;;;2.77;1.87;;;7.50;99.90;;;;;;5011430;28;20516;-74
2023/11/18 04:42:18;;;;;;;2.43;2.23;;;7.50;99.90;;;;;;5012415;28;20906;-74
2023/11/18 04:44:43;;;;;;;2.03;1.93;;;7.50;99.90;;;;;;5031338;28;20789;-74
2023/11/18 04:47:10;;;;;;;3.63;2.40;;;7.50;99.90;;;;;;5035179;28;20396;-74
2023/11/18 04:49:36;;;;;;;2.90;2.60;;;7.40;99.90;;;;;;5035037;28;20175;-74
2023/11/18 04:52:02;;;;;;;2.73;2.53;;;7.40;99.90;;;;;;5036772;28;20431;-74
2023/11/18 04:54:27;;;;;;;2.13;1.93;;;7.30;99.90;;;;;;5020140;28;20168;-74
2023/11/18 04:56:53;;;;;;;2.60;2.40;;;7.20;99.90;;;;;;5016606;28;20255;-74
2023/11/18 04:59:19;;;;;;;3.17;2.80;;;7.20;99.90;;;;;;5016455;28;20650;-74
2023/11/18 05:01:44;;;;;;;2.80;2.60;;;7.00;99.90;;;;;;5016320;28;20197;-73
2023/11/18 05:04:10;;;;;;;3.57;3.20;;;7.10;99.90;;;;;;5029845;28;20184;-73
2023/11/18 05:06:36;;;;;;;4.00;3.17;;;7.10;99.90;;;;;;5036169;28;20516;-73
2023/11/18 05:09:01;;;;;;;3.27;3.00;;;7.00;99.90;;;;;;5036067;28;20401;-73
2023/11/18 05:11:27;;;;;;;2.97;2.67;;;7.00;99.90;;;;;;5035920;28;20190;-74
2023/11/18 05:13:53;;;;;;;3.23;2.93;;;7.20;99.90;;;;;;5024858;28;20691;-74
2023/11/18 05:16:19;;;;;;;3.20;2.90;;;7.30;99.90;;;;;;5011946;28;20179;-74
2023/11/18 05:18:44;;;;;;;3.07;2.77;;;7.30;99.90;;;;;;5016213;28;20505;-72
2023/11/18 05:21:11;;;;;;;4.00;2.50;;;7.30;99.90;;;;;;5015831;28;20205;-74
2023/11/18 05:23:36;;;;;;;5.30;3.00;;;7.30;99.90;;;;;;5024826;28;20167;-74
2023/11/18 05:26:05;;;;;;;2.60;2.40;;;7.20;99.90;;;;;;5035735;28;20403;-74
2023/11/18 05:28:31;;;;;;;2.93;2.63;;;7.20;99.90;;;;;;5035707;28;20170;-74
2023/11/18 05:31:02;;;;;;;2.47;2.27;;;7.30;99.90;;;;;;5035917;28;20458;-74
2023/11/18 05:33:28;;;;;;;3.90;3.50;;;7.30;99.90;;;;;;5028344;28;20775;-74
2023/11/18 05:35:54;;;;;;;3.93;3.50;;;7.30;99.90;;;;;;5016246;28;20504;-74
2023/11/18 05:38:25;;;;;;;3.87;3.57;;;7.40;99.90;;;;;;5015975;28;20500;-74
2023/11/18 05:40:57;;;;;;;4.07;3.67;;;7.40;99.90;;;;;;5015886;28;20456;-74
2023/11/18 05:43:29;;;;;;;3.10;2.80;;;7.40;99.90;;;;;;5022269;28;20462;-74
2023/11/18 05:46:14;;;;;;;3.70;3.40;;;7.40;99.90;;;;;;5035733;28;20386;-74
2023/11/18 05:48:43;;;;;;;3.90;3.57;;;7.40;99.90;;;;;;5035952;28;20477;-74
2023/11/18 05:51:09;;;;;;;3.53;3.23;;;7.40;99.90;;;;;;5034365;28;20519;-74
2023/11/18 05:53:45;;;;;;;3.67;3.37;;;7.50;99.90;;;;;;5025938;28;20441;-74
2023/11/18 05:56:18;;;;;;;5.50;5.00;;;7.50;99.90;;;;;;5016189;28;20898;-74
2023/11/18 05:58:43;;;;;;;5.57;3.30;;;7.40;99.90;;;;;;5015194;28;20402;-74
2023/11/18 06:01:10;;;;;;;4.40;4.00;;;7.40;99.90;;;;;;5015727;28;20512;-74
2023/11/18 06:03:39;;;;;;;3.63;3.20;;;7.40;99.90;;;;;;5023544;28;20163;-74
2023/11/18 06:06:09;;;;;;;3.37;3.03;;;7.30;99.90;;;;;;5035284;28;20413;-73
2023/11/18 06:08:36;;;;;;;4.43;4.00;;;7.20;99.90;;;;;;5035027;28;20405;-73
2023/11/18 06:11:12;;;;;;;4.57;4.10;;;7.20;99.90;;;;;;5035379;28;20447;-74
2023/11/18 06:13:42;;;;;;;5.03;4.30;;;7.10;99.90;;;;;;5026901;28;20406;-73
2023/11/18 06:16:35;;;;;;;4.20;3.50;;;7.00;99.90;;;;;;5015246;28;20463;-73
2023/11/18 06:19:04;;;;;;;5.20;4.70;;;7.00;99.90;;;;;;5011425;28;20468;-74
2023/11/18 06:21:31;;;;;;;4.20;3.80;;;6.90;99.90;;;;;;5027147;28;20547;-74
2023/11/18 06:23:58;;;;;;;5.27;4.17;;;6.80;99.90;;;;;;5024510;28;20459;-74
2023/11/18 06:26:27;;;;;;;4.43;2.90;;;6.80;99.90;;;;;;5015359;28;20413;-74
2023/11/18 06:28:54;;;;;;;4.00;3.30;;;6.80;99.90;;;;;;5030830;28;20922;-74
2023/11/18 06:31:20;;;;;;;3.80;3.50;;;6.70;99.90;;;;;;5035381;28;20535;-74
2023/11/18 06:33:47;;;;;;;4.40;4.07;;;6.70;99.90;;;;;;5025868;28;20406;-74
2023/11/18 06:36:21;;;;;;;4.47;4.07;;;6.70;99.90;;;;;;5014760;28;20926;-74
2023/11/18 06:38:52;;;;;;;3.80;3.37;;;6.70;99.90;;;;;;5014934;28;20930;-74
2023/11/18 06:41:19;;;;;;;3.53;3.23;;;6.70;99.90;;;;;;5014469;28;20473;-74
2023/11/18 06:43:56;;;;;;;4.00;3.60;;;6.60;99.90;;;;;;5021822;28;20425;-74
2023/11/18 06:46:25;;;;;;;5.10;4.60;;;6.40;99.90;;;;;;5034282;28;20408;-73
2023/11/18 06:48:55;;;;;;;5.23;4.73;;;6.30;99.90;;;;;;5032817;28;20416;-74
2023/11/18 06:51:27;;;;;;;6.70;4.57;;;6.20;99.90;;;;;;5034266;28;20431;-74
2023/11/18 06:53:56;;;;;;;5.70;4.57;;;6.30;99.90;;;;;;5024629;28;20409;-73
2023/11/18 06:56:27;;;;;;;4.30;3.60;;;6.30;99.90;;;;;;5014693;28;20412;-73
2023/11/18 06:58:53;;;;;;;7.33;6.73;;;6.40;99.90;;;;;;5014164;28;20447;-73
2023/11/18 07:01:18;;;;;;;6.30;5.70;;;6.40;99.90;;;;;;5012786;28;20467;-74
2023/11/18 07:03:48;;;;;;;5.20;4.80;;;6.50;99.90;;;;;;5022282;28;20410;-73
2023/11/18 07:06:21;;;;;;;7.97;6.00;;;6.60;99.90;;;;;;5033847;28;20170;-73
2023/11/18 07:08:51;;;;;;;6.67;5.97;;;6.70;99.90;;;;;;5034018;28;20474;-73
2023/11/18 07:11:17;;;;;;;5.00;4.53;;;6.80;99.90;;;;;;5033600;28;20512;-74
2023/11/18 07:13:44;;;;;;;8.37;4.73;;;6.80;99.90;;;;;;5025620;28;20500;-74
2023/11/18 07:16:09;;;;;;;6.10;5.33;;;7.00;99.90;;;;;;5013864;28;20414;-73
2023/11/18 07:18:36;;;;;;;5.80;5.17;;;6.90;99.90;;;;;;5013705;28;20468;-74
2023/11/18 07:21:04;;;;;;;5.30;4.80;;;7.10;99.90;;;;;;5013594;28;20202;-74
2023/11/18 07:23:31;;;;;;;6.20;5.60;;;7.20;99.90;;;;;;5019747;28;20410;-74
2023/11/18 07:25:57;;;;;;;6.07;4.73;;;7.00;99.90;;;;;;5033736;28;20413;-74
2023/11/18 07:28:23;;;;;;;5.53;5.03;;;7.00;99.90;;;;;;5033699;28;20416;-73
2023/11/18 07:30:49;;;;;;;6.30;5.70;;;7.10;99.90;;;;;;5033240;28;20570;-74
2023/11/18 07:33:15;;;;;;;5.90;5.30;;;7.10;99.90;;;;;;5029650;28;20198;-74
2023/11/18 07:35:41;;;;;;;6.70;6.00;;;7.20;99.90;;;;;;5013596;28;20176;-74
2023/11/18 07:38:07;;;;;;;6.37;5.70;;;7.00;99.90;;;;;;5011931;28;20544;-73
2023/11/18 07:40:33;;;;;;;6.20;5.40;;;7.00;99.90;;;;;;5013217;28;20449;-74
2023/11/18 07:43:03;;;;;;;7.90;5.20;;;7.10;99.90;;;;;;5014746;28;20202;-74
2023/11/18 07:45:37;;;;;;;6.07;5.43;;;7.20;99.90;;;;;;5032988;28;20466;-74
2023/11/18 07:48:06;;;;;;;6.07;5.57;;;7.30;99.90;;;;;;5033001;28;20385;-74
2023/11/18 07:50:38;;;;;;;6.87;5.47;;;7.50;99.90;;;;;;5033321;28;20419;-74
2023/11/18 07:53:06;;;;;;;6.00;5.43;;;7.60;99.90;;;;;;5031093;28;20734;-74
2023/11/18 07:55:34;;;;;;;5.80;5.20;;;7.80;99.90;;;;;;5013571;28;20414;-73
2023/11/18 07:58:00;;;;;;;6.07;4.97;;;7.70;99.90;;;;;;5013101;28;20424;-73
2023/11/18 08:00:30;;;;;;;4.07;3.67;;;7.70;99.90;;;;;;5012962;28;20466;-74
2023/11/18 08:02:56;;;;;;;4.67;4.20;;;8.00;99.90;;;;;;5013745;28;20459;-74
2023/11/18 08:05:23;;;;;;;5.73;4.17;;;8.10;99.90;;;;;;5033216;28;20406;-74
2023/11/18 08:07:49;;;;;;;4.40;4.00;;;8.30;99.90;;;;;;5032880;28;20538;-74
2023/11/18 08:10:18;;;;;;;3.97;3.63;;;8.10;99.90;;;;;;5032779;28;20413;-74
2023/11/18 08:12:44;;;;;;;4.90;4.40;;;8.20;99.90;;;;;;5031346;28;20503;-74
2023/11/18 08:15:10;;;;;;;3.80;3.50;;;8.40;99.90;;;;;;5012226;28;20836;-75
2023/11/18 08:17:36;;;;;;;4.23;3.83;;;8.60;99.90;;;;;;5012639;28;20415;-74
2023/11/18 08:20:13;;;;;;;3.97;3.57;;;8.50;99.90;;;;;;5014056;28;20291;-74
2023/11/18 08:22:40;;;;;;;4.07;3.67;;;8.70;99.90;;;;;;5012397;28;20194;-74
2023/11/18 08:25:08;;;;;;;3.00;2.77;;;8.70;99.90;;;;;;5030824;28;20404;-74
2023/11/18 08:27:34;;;;;;;3.67;3.38;;;8.80;99.90;;;;;;5032378;28;20463;-74
2023/11/18 08:29:59;;;;;;;4.23;3.83;;;9.00;99.90;;;;;;5032609;28;20576;-74
2023/11/18 08:32:25;;;;;;;5.73;3.93;;;8.90;99.90;;;;;;5026863;28;20659;-74
2023/11/18 08:34:51;;;;;;;4.77;4.30;;;8.90;99.90;;;;;;5012822;28;20174;-74
2023/11/18 08:37:16;;;;;;;4.60;3.90;;;9.00;99.90;;;;;;5011628;28;20198;-74
2023/11/18 08:39:42;;;;;;;4.60;4.20;;;8.70;99.90;;;;;;5011426;28;20420;-74
2023/11/18 08:42:08;;;;;;;4.33;3.80;;;8.90;99.90;;;;;;5012485;28;20216;-74
2023/11/18 08:44:33;;;;;;;4.00;3.60;;;9.20;99.90;;;;;;5012755;28;20580;-74
2023/11/18 08:46:59;;;;;;;6.50;5.90;;;9.30;99.90;;;;;;5012525;28;20434;-74
2023/11/18 08:49:25;;;;;;;5.80;4.97;;;9.20;99.90;;;;;;5012679;28;20626;-75
2023/11/18 08:51:55;;;;;;;6.03;5.50;;;9.20;99.90;;;;;;5012628;28;20192;-74
2023/11/18 08:54:36;;;;;;;4.63;4.23;;;9.40;99.90;;;;;;5024121;28;20169;-74
2023/11/18 08:57:03;;;;;;;3.43;3.13;;;9.30;99.90;;;;;;5032604;28;20393;-74
2023/11/18 08:59:32;;;;;;;9.83;8.97;;;9.10;99.90;;;;;;5032688;28;20541;-75
2023/11/18 09:01:59;;;;;;;4.77;4.10;;;9.20;99.90;;;;;;5032918;28;20460;-74
2023/11/18 09:04:25;;;;;;;10.13;9.43;;;9.40;99.90;;;;;;5020477;28;20828;-74
2023/11/18 09:06:58;;;;;;;3.67;3.37;;;9.50;99.90;;;;;;5012471;28;20407;-74
2023/11/18 09:09:27;;;;;;;8.80;8.00;;;9.40;99.90;;;;;;5011320;28;20492;-74
2023/11/18 09:11:56;;;;;;;9.20;8.37;;;9.50;99.90;;;;;;5012745;28;20458;-74
2023/11/18 09:14:25;;;;;;;7.33;6.70;;;9.50;99.90;;;;;;5023739;28;20415;-74
2023/11/18 09:16:54;;;;;;;6.07;5.50;;;9.40;99.90;;;;;;5032188;28;20413;-74
2023/11/18 09:19:21;;;;;;;3.77;2.77;;;9.30;99.90;;;;;;5032187;28;20920;-75
2023/11/18 09:21:47;;;;;;;3.40;3.10;;;9.20;99.90;;;;;;5032217;28;20831;-74
2023/11/18 09:24:14;;;;;;;3.30;2.97;;;9.50;99.90;;;;;;5022048;28;20484;-75
2023/11/18 09:26:40;;;;;;;2.50;2.30;;;9.60;99.90;;;;;;5012762;28;20407;-74
2023/11/18 09:29:08;;;;;;;4.00;3.40;;;9.80;99.90;;;;;;5011203;28;20420;-75
2023/11/18 09:31:36;;;;;;;3.27;2.30;;;9.90;99.90;;;;;;5011134;28;20443;-75
2023/11/18 09:34:06;;;;;;;5.03;2.37;;;9.90;99.90;;;;;;5023082;28;20938;-74
2023/11/18 09:36:33;;;;;;;3.13;2.63;;;9.70;99.90;;;;;;5034477;28;20435;-75
2023/11/18 09:38:59;;;;;;;6.00;4.10;;;9.80;99.90;;;;;;5034361;28;20418;-75
2023/11/18 09:41:26;;;;;;;4.50;2.77;;;10.00;99.90;;;;;;5059067;22;20482;-73
2023/11/18 09:43:56;;;;;;;3.70;2.10;;;10.40;99.90;;;;;;5035989;28;20410;-72
2023/11/18 09:46:24;;;;;;;2.90;1.90;;;10.70;99.90;;;;;;5035923;28;20440;-73
2023/11/18 09:49:17;;;;;;;2.50;1.83;;;10.90;99.90;;;;;;5035672;28;20398;-73
2023/11/18 09:51:46;;;;;;;3.27;2.70;;;11.00;99.90;;;;;;5036217;28;20927;-71
2023/11/18 09:54:36;;;;;;;3.23;3.00;;;10.70;99.90;;;;;;5035957;28;20398;-72
2023/11/18 09:57:13;;;;;;;3.40;2.37;;;10.40;99.90;;;;;;5035951;28;20440;-73
2023/11/18 10:00:10;;;;;;;3.50;2.20;;;10.60;99.90;;;;;;5036102;28;20718;-73
2023/11/18 10:02:39;;;;;;;3.67;2.10;;;10.80;99.90;;;;;;5035500;28;20446;-72
2023/11/18 10:05:12;;;;;;;3.47;1.73;;;10.80;99.90;;;;;;5035554;28;20888;-73
2023/11/18 10:07:41;;;;;;;3.97;2.10;;;10.80;99.90;;;;;;5033538;28;20497;-73
2023/11/18 10:10:14;;;;;;;1.70;1.50;;;11.20;99.90;;;;;;5035332;28;20545;-73
2023/11/18 10:12:44;;;;;;;2.47;1.90;;;11.20;99.90;;;;;;5035469;28;20428;-74
2023/11/18 10:15:13;;;;;;;1.63;1.30;;;11.30;99.90;;;;;;5035086;28;20411;-73
2023/11/18 10:20:46;;;;;;;1.90;1.40;;;11.60;99.90;;;;;;5035703;28;20420;-72
2023/11/18 10:23:21;;;;;;;2.00;1.50;;;12.00;99.90;;;;;;5034836;28;20428;-75
2023/11/18 10:25:49;;;;;;;1.80;1.47;;;11.60;99.90;;;;;;5035135;28;20649;-73
2023/11/18 10:28:28;;;;;;;1.50;1.40;;;11.80;99.90;;;;;;5035279;28;20413;-74
2023/11/18 10:31:15;;;;;;;3.73;1.63;;;12.00;99.90;;;;;;5034923;28;20794;-74
2023/11/18 10:33:43;;;;;;;1.60;1.50;;;11.80;99.90;;;;;;5033632;28;20421;-74
2023/11/18 10:36:23;;;;;;;1.70;1.60;;;11.90;99.90;;;;;;5034853;28;20405;-73
2023/11/18 10:38:51;;;;;;;1.90;1.60;;;11.90;99.90;;;;;;5034705;28;20471;-73
2023/11/18 10:41:18;;;;;;;3.53;1.20;;;11.70;99.90;;;;;;5034658;28;20462;-74
2023/11/18 10:43:45;;;;;;;2.93;1.40;;;11.60;99.90;;;;;;5034433;28;20436;-73
2023/11/18 10:46:15;;;;;;;1.70;1.53;;;11.80;99.90;;;;;;5034861;28;20403;-74
2023/11/18 10:48:49;;;;;;;1.80;1.40;;;11.80;99.90;;;;;;5034587;28;20769;-73
2023/11/18 10:51:19;;;;;;;1.47;1.37;;;12.00;99.90;;;;;;5034764;28;20570;-73
2023/11/18 10:53:58;;;;;;;1.80;1.40;;;12.10;99.90;;;;;;5034718;28;20886;-73
2023/11/18 10:56:26;;;;;;;2.03;1.60;;;12.10;99.90;;;;;;5034650;28;20385;-74
2023/11/18 10:58:53;;;;;;;2.27;1.20;;;12.30;99.90;;;;;;5034401;28;20404;-73
2023/11/18 11:01:33;;;;;;;2.70;1.50;;;12.30;99.90;;;;;;5034249;28;20459;-74
2023/11/18 11:03:59;;;;;;;3.67;1.47;;;12.30;99.90;;;;;;5034374;28;20394;-74
2023/11/18 11:06:26;;;;;;;1.50;1.00;;;12.20;99.90;;;;;;5034121;28;20976;-73
2023/11/18 11:08:54;;;;;;;2.00;1.70;;;12.10;99.90;;;;;;5034179;28;20411;-74
2023/11/18 11:11:25;;;;;;;1.67;1.43;;;12.10;99.90;;;;;;5032193;28;20437;-75
2023/11/18 11:14:03;;;;;;;4.33;1.63;;;11.90;99.90;;;;;;5033146;28;20410;-74
2023/11/18 11:16:38;;;;;;;3.00;1.70;;;11.90;99.90;;;;;;5034360;28;20378;-73
2023/11/18 11:19:08;;;;;;;1.47;1.07;;;11.90;99.90;;;;;;5034415;28;20394;-73
2023/11/18 11:21:47;;;;;;;2.40;1.30;;;12.00;99.90;;;;;;5033686;28;20881;-72
2023/11/18 11:24:33;;;;;;;2.77;1.77;;;12.30;99.90;;;;;;5014330;28;20387;-73
2023/11/18 11:27:10;;;;;;;2.10;1.23;;;12.70;99.90;;;;;;5014279;28;20733;-74
2023/11/18 11:29:38;;;;;;;2.13;1.50;;;12.90;99.90;;;;;;5013989;28;20385;-73
2023/11/18 11:32:30;;;;;;;2.37;1.10;;;13.20;99.90;;;;;;5017558;28;20441;-73
2023/11/18 11:35:05;;;;;;;2.83;1.10;;;12.90;99.90;;;;;;5033898;28;20724;-74
2023/11/18 11:37:34;;;;;;;2.03;1.27;;;12.60;99.90;;;;;;5033535;28;20446;-73
2023/11/18 11:40:04;;;;;;;5.87;1.73;;;12.40;99.90;;;;;;5032219;28;20510;-74
2023/11/18 11:42:32;;;;;;;2.37;1.50;;;12.20;99.90;;;;;;5033118;28;20466;-74
2023/11/18 11:44:58;;;;;;;3.00;1.17;;;12.50;99.90;;;;;;5033723;28;20434;-74
2023/11/18 11:47:28;;;;;;;2.47;1.60;;;12.40;99.90;;;;;;5033733;28;20457;-74
2023/11/18 11:50:12;;;;;;;4.57;2.67;;;12.20;99.90;;;;;;5033741;28;20394;-74
2023/11/18 11:52:44;;;;;;;2.07;1.23;;;12.20;99.90;;;;;;5032183;28;20424;-74
2023/11/18 11:55:23;;;;;;;2.80;1.40;;;12.10;99.90;;;;;;5032598;28;20881;-73
2023/11/18 11:57:58;;;;;;;2.13;1.50;;;11.60;99.90;;;;;;5031949;28;20473;-74
2023/11/18 12:00:25;;;;;;;3.17;1.27;;;11.60;99.90;;;;;;5032013;28;20832;-74
2023/11/18 12:02:56;;;;;;;3.70;2.07;;;11.70;99.90;;;;;;5032890;28;20452;-74
2023/11/18 12:05:25;;;;;;;2.13;1.50;;;11.70;99.90;;;;;;5033411;28;20417;-73
2023/11/18 12:07:54;;;;;;;1.27;1.10;;;11.80;99.90;;;;;;5033090;28;20404;-72
2023/11/18 12:10:22;;;;;;;2.43;1.53;;;11.70;99.90;;;;;;5032929;28;20499;-73
2023/11/18 12:12:48;;;;;;;2.30;1.23;;;11.70;99.90;;;;;;5032879;28;20513;-73
2023/11/18 12:15:20;;;;;;;3.47;1.33;;;11.40;99.90;;;;;;5032686;28;20493;-72
2023/11/18 12:18:03;;;;;;;2.67;1.20;;;11.20;99.90;;;;;;5033526;28;20417;-73
2023/11/18 12:20:44;;;;;;;2.13;1.60;;;11.20;99.90;;;;;;5033382;28;20387;-72
2023/11/18 12:23:17;;;;;;;3.23;1.77;;;11.10;99.90;;;;;;5032686;28;20483;-73
2023/11/18 12:25:49;;;;;;;1.57;1.17;;;11.00;99.90;;;;;;5032597;28;20948;-72
2023/11/18 12:28:21;;;;;;;3.43;1.70;;;10.80;99.90;;;;;;5032801;28;20428;-73
2023/11/18 12:30:55;;;;;;;2.60;1.40;;;10.80;99.90;;;;;;5032747;28;20396;-73
2023/11/18 12:33:30;;;;;;;2.30;1.43;;;10.80;99.90;;;;;;5033046;28;20424;-73
2023/11/18 12:36:01;;;;;;;2.00;1.10;;;10.60;99.90;;;;;;5033286;28;20379;-73
2023/11/18 12:38:57;;;;;;;4.03;1.37;;;10.40;99.90;;;;;;5033095;28;20394;-72
2023/11/18 12:41:41;;;;;;;2.50;1.43;;;10.60;99.90;;;;;;5032565;28;20469;-73
2023/11/18 12:44:22;;;;;;;2.73;1.20;;;10.60;99.90;;;;;;5032878;28;20410;-73
2023/11/18 12:47:14;;;;;;;2.60;1.57;;;10.70;99.90;;;;;;5033019;28;20406;-74
2023/11/18 12:49:43;;;;;;;1.40;1.20;;;10.80;99.90;;;;;;5033013;28;20400;-73
2023/11/18 12:52:12;;;;;;;2.70;1.20;;;10.70;99.90;;;;;;5032748;28;20429;-73
2023/11/18 12:54:38;;;;;;;2.20;1.27;;;10.50;99.90;;;;;;5032846;28;20817;-73
2023/11/18 12:57:06;;;;;;;2.67;1.60;;;10.50;99.90;;;;;;5032697;28;20806;-73
2023/11/18 12:59:33;;;;;;;1.70;1.20;;;10.50;99.90;;;;;;5032388;28;20405;-72
2023/11/18 13:02:03;;;;;;;4.90;1.97;;;10.60;99.90;;;;;;5032404;28;21015;-72
2023/11/18 13:04:30;;;;;;;2.20;1.37;;;10.70;99.90;;;;;;5033222;28;20492;-73
2023/11/18 13:06:58;;;;;;;2.13;1.20;;;10.80;99.90;;;;;;5033606;28;20449;-73